Box Emma — V7WY6 — position and weather

sailwx.info

Track history (hours):
 
Tides and Currents Weather Stations Pressure Air Temp Water Temp Dewpoint Dewpoint Depression Visibility Wind Speed Wind Dir Waves Ship Positions

Box Emma

Last reported at 2015-Jul-30 12:32 UTC. Time now 2015-Jul-30 23:00 UTC.
Position S 34°48' E 138°23'.

Length 294 m; draft 10.4 m.

Type: Ship (hazmat cat A). MMSI: 538004424.

Date/timePositionNaut miles runAvg speedWind from/ knotsBaromVisibWave heightAir tempDewpointWater temp
2015-Jul-30 12:32S 34°48' E 138°23'6 5.0
2015-Jul-30 11:23S 34°46' E 138°29'0 0.0
2015-Jul-30 09:31S 34°46' E 138°29'263 7.0
2015-Jul-28 20:12S 38°30' E 141°22'913.8
2015-Jul-28 19:33S 38°34' E 141°32'1413.9
2015-Jul-28 18:33S 38°38' E 141°49'1413.7
2015-Jul-28 17:33S 38°42' E 142°06'1313.4
2015-Jul-28 16:33S 38°46' E 142°22'1313.5
2015-Jul-28 15:33S 38°50' E 142°39'1413.6
2015-Jul-28 14:33S 38°55' E 142°55'13813.7
2015-Jul-28 04:32S 39°11' E 145°51'1313.6
2015-Jul-28 03:33S 39°12' E 146°08'1313.5
2015-Jul-28 02:34S 39°11' E 146°26'1413.8
2015-Jul-28 01:33S 39°07' E 146°43'1413.8
2015-Jul-28 00:34S 39°02' E 146°59'1413.8
2015-Jul-27 23:34S 38°57' E 147°16'1413.5
2015-Jul-27 22:33S 38°53' E 147°33'7213.6
2015-Jul-27 17:13S 38°20' E 148°55'913.9
2015-Jul-27 16:33S 38°15' E 149°05'4513.8
2015-Jul-27 13:16S 37°47' E 149°50'1013.3
2015-Jul-27 12:33S 37°40' E 149°58'1413.6
2015-Jul-27 11:33S 37°28' E 150°08'1413.9
2015-Jul-27 10:31S 37°16' E 150°17'9 0.2
2015-Jul-25 07:09S 37°08' E 150°21'1118.4
2015-Jul-25 06:32S 37°19' E 150°17'2118.2
2015-Jul-25 05:24S 37°37' E 150°06'1618.8
2015-Jul-25 04:33S 37°51' E 149°55'1918.6
2015-Jul-25 03:33S 38°03' E 149°37'2118.7
2015-Jul-25 02:24S 38°15' E 149°15'1618.5
2015-Jul-25 01:33S 38°24' E 148°58'2418.6
2015-Jul-25 00:15S 38°37' E 148°32'6918.8
2015-Jul-24 20:34S 39°05' E 147°11'1918.8
2015-Jul-24 19:33S 39°12' E 146°48'1818.3
2015-Jul-24 18:34S 39°16' E 146°25'1918.5
2015-Jul-24 17:34S 39°12' E 146°02'1918.9
2015-Jul-24 16:33S 39°02' E 145°41'104 2.3
2015-Jul-22 19:13S 38°58' E 143°28'1014.6
2015-Jul-22 18:30S 38°57' E 143°15'1414.7
2015-Jul-22 17:33S 38°57' E 142°57'1514.6
2015-Jul-22 16:33S 38°54' E 142°38'1514.8
2015-Jul-22 15:32S 38°52' E 142°19'1515.3
2015-Jul-22 14:33S 38°49' E 142°00'1515.2
2015-Jul-22 13:33S 38°47' E 141°41'1515.3
2015-Jul-22 12:33S 38°44' E 141°22'4715.1
2015-Jul-22 09:25S 38°36' E 140°22'  
Track history (hours):
 
Tides and Currents Weather Stations Pressure Air Temp Water Temp Dewpoint Dewpoint Depression Visibility Wind Speed Wind Dir Waves Ship Positions

Box Emma

Last reported at 2015-Jul-30 12:32 UTC. Time now 2015-Jul-30 23:00 UTC.
Position S 34°48' E 138°23'.

Length 294 m; draft 10.4 m.

Type: Ship (hazmat cat A). MMSI: 538004424.

Date/timePositionNaut miles runAvg speedWind from/ knotsBaromVisibWave heightAir tempDewpointWater temp
2015-Jul-30 12:32S 34°48' E 138°23'6 5.0
2015-Jul-30 11:23S 34°46' E 138°29'0 0.0
2015-Jul-30 09:31S 34°46' E 138°29'263 7.0
2015-Jul-28 20:12S 38°30' E 141°22'913.8
2015-Jul-28 19:33S 38°34' E 141°32'1413.9
2015-Jul-28 18:33S 38°38' E 141°49'1413.7
2015-Jul-28 17:33S 38°42' E 142°06'1313.4
2015-Jul-28 16:33S 38°46' E 142°22'1313.5
2015-Jul-28 15:33S 38°50' E 142°39'1413.6
2015-Jul-28 14:33S 38°55' E 142°55'13813.7
2015-Jul-28 04:32S 39°11' E 145°51'1313.6
2015-Jul-28 03:33S 39°12' E 146°08'1313.5
2015-Jul-28 02:34S 39°11' E 146°26'1413.8
2015-Jul-28 01:33S 39°07' E 146°43'1413.8
2015-Jul-28 00:34S 39°02' E 146°59'1413.8
2015-Jul-27 23:34S 38°57' E 147°16'1413.5
2015-Jul-27 22:33S 38°53' E 147°33'7213.6
2015-Jul-27 17:13S 38°20' E 148°55'913.9
2015-Jul-27 16:33S 38°15' E 149°05'4513.8
2015-Jul-27 13:16S 37°47' E 149°50'1013.3
2015-Jul-27 12:33S 37°40' E 149°58'1413.6
2015-Jul-27 11:33S 37°28' E 150°08'1413.9
2015-Jul-27 10:31S 37°16' E 150°17'9 0.2
2015-Jul-25 07:09S 37°08' E 150°21'1118.4
2015-Jul-25 06:32S 37°19' E 150°17'2118.2
2015-Jul-25 05:24S 37°37' E 150°06'1618.8
2015-Jul-25 04:33S 37°51' E 149°55'1918.6
2015-Jul-25 03:33S 38°03' E 149°37'2118.7
2015-Jul-25 02:24S 38°15' E 149°15'1618.5
2015-Jul-25 01:33S 38°24' E 148°58'2418.6
2015-Jul-25 00:15S 38°37' E 148°32'6918.8
2015-Jul-24 20:34S 39°05' E 147°11'1918.8
2015-Jul-24 19:33S 39°12' E 146°48'1818.3
2015-Jul-24 18:34S 39°16' E 146°25'1918.5
2015-Jul-24 17:34S 39°12' E 146°02'1918.9
2015-Jul-24 16:33S 39°02' E 145°41'104 2.3
2015-Jul-22 19:13S 38°58' E 143°28'1014.6
2015-Jul-22 18:30S 38°57' E 143°15'1414.7
2015-Jul-22 17:33S 38°57' E 142°57'1514.6
2015-Jul-22 16:33S 38°54' E 142°38'1514.8
2015-Jul-22 15:32S 38°52' E 142°19'1515.3
2015-Jul-22 14:33S 38°49' E 142°00'1515.2
2015-Jul-22 13:33S 38°47' E 141°41'1515.3
2015-Jul-22 12:33S 38°44' E 141°22'4715.1
2015-Jul-22 09:25S 38°36' E 140°22'  

Dump ship's entire track history